LLM177 USTR-URMM
Flight info
| Callsign | LLM177 |
|---|---|
| Flight time | N/A |
| Altitude | 36000 |
| Route | BUKOS1R BUKOS T797 MGR L992 KUPOM/K0863F380 L992 AKB Z210 KODUM N996 OTMAS DCT ITAKA R227 URILU URILU5A |
| Aircraft | B38M/M-SDE1FGHILORVWXY/HB1 |
Departure
| Time | 2026-04-26 08:14 |
|---|---|
| Airport | Roshchino International Airport (USTR) |
Arrival
| Time | N/A |
|---|---|
| Airport | Mineralnye Vody Airport (URMM) |
| Time | Latitude | Longitude | Altitude | Speed | Heading |
|---|---|---|---|---|---|
| 2026-04-26 08:12 | 57.18649 | 65.31884 | 334 ft | 0 kts | 317° |
| 2026-04-26 08:12 | 57.18650 | 65.31883 | 335 ft | 2 kts | 317° |
| 2026-04-26 08:13 | 57.18695 | 65.31807 | 350 ft | 13 kts | 317° |
| 2026-04-26 08:13 | 57.18683 | 65.31674 | 349 ft | 11 kts | 227° |
| 2026-04-26 08:13 | 57.18578 | 65.31461 | 354 ft | 49 kts | 228° |
| 2026-04-26 08:13 | 57.18200 | 65.30697 | 376 ft | 111 kts | 227° |
| 2026-04-26 08:14 | 57.17573 | 65.29394 | 426 ft | 155 kts | 230° |
| 2026-04-26 08:14 | 57.16806 | 65.27822 | 823 ft | 172 kts | 227° |
| 2026-04-26 08:14 | 57.16006 | 65.26127 | 1521 ft | 175 kts | 236° |
| 2026-04-26 08:14 | 57.15274 | 65.24263 | 2188 ft | 186 kts | 237° |
| 2026-04-26 08:15 | 57.14495 | 65.22204 | 2694 ft | 201 kts | 238° |
| 2026-04-26 08:15 | 57.13670 | 65.20037 | 3391 ft | 215 kts | 237° |
| 2026-04-26 08:15 | 57.12705 | 65.17534 | 3431 ft | 255 kts | 236° |
| 2026-04-26 08:15 | 57.11664 | 65.15003 | 4542 ft | 252 kts | 235° |
| 2026-04-26 08:16 | 57.10584 | 65.12390 | 5204 ft | 264 kts | 235° |
| 2026-04-26 08:16 | 57.09490 | 65.09624 | 5951 ft | 259 kts | 236° |
| 2026-04-26 08:16 | 57.08515 | 65.07087 | 6387 ft | 227 kts | 237° |
| 2026-04-26 08:16 | 57.07613 | 65.04705 | 6265 ft | 239 kts | 237° |
| 2026-04-26 08:17 | 57.06585 | 65.02030 | 6025 ft | 260 kts | 237° |
| 2026-04-26 08:17 | 57.05553 | 64.99377 | 5964 ft | 252 kts | 236° |
| 2026-04-26 08:17 | 57.04536 | 64.96782 | 5772 ft | 249 kts | 236° |
| 2026-04-26 08:17 | 57.03518 | 64.94199 | 5376 ft | 252 kts | 236° |
| 2026-04-26 08:18 | 57.02508 | 64.91658 | 5519 ft | 243 kts | 236° |
| 2026-04-26 08:18 | 57.01501 | 64.89111 | 6024 ft | 251 kts | 236° |
| 2026-04-26 08:18 | 57.00484 | 64.86547 | 7007 ft | 249 kts | 236° |
| 2026-04-26 08:18 | 56.99440 | 64.83921 | 7747 ft | 257 kts | 236° |
| 2026-04-26 08:19 | 56.98400 | 64.81304 | 8685 ft | 259 kts | 236° |
| 2026-04-26 08:19 | 56.97316 | 64.78584 | 9544 ft | 263 kts | 236° |
| 2026-04-26 08:19 | 56.96254 | 64.75921 | 10412 ft | 261 kts | 236° |
| 2026-04-26 08:19 | 56.95121 | 64.73078 | 9721 ft | 309 kts | 235° |
| 2026-04-26 08:20 | 56.93841 | 64.69879 | 10431 ft | 310 kts | 236° |
| 2026-04-26 08:20 | 56.92571 | 64.66705 | 11189 ft | 315 kts | 235° |
| 2026-04-26 08:20 | 56.91256 | 64.63504 | 11979 ft | 317 kts | 234° |
| 2026-04-26 08:20 | 56.89779 | 64.60594 | 13181 ft | 304 kts | 223° |
| 2026-04-26 08:21 | 56.88289 | 64.58130 | 14774 ft | 275 kts | 225° |
| 2026-04-26 08:21 | 56.86931 | 64.55796 | 15923 ft | 267 kts | 226° |
| 2026-04-26 08:21 | 56.85529 | 64.53352 | 15974 ft | 293 kts | 226° |
| 2026-04-26 08:21 | 56.83974 | 64.50618 | 15779 ft | 324 kts | 226° |
| 2026-04-26 08:22 | 56.82348 | 64.47745 | 16537 ft | 321 kts | 226° |
| 2026-04-26 08:22 | 56.80797 | 64.44997 | 17949 ft | 301 kts | 226° |
| 2026-04-26 08:22 | 56.79318 | 64.42375 | 18924 ft | 293 kts | 226° |
| 2026-04-26 08:22 | 56.77828 | 64.39733 | 19180 ft | 309 kts | 226° |
| 2026-04-26 08:23 | 56.76229 | 64.36903 | 19176 ft | 329 kts | 226° |
| 2026-04-26 08:23 | 56.74579 | 64.33984 | 19826 ft | 326 kts | 226° |
| 2026-04-26 08:23 | 56.73015 | 64.31221 | 21025 ft | 308 kts | 226° |
| 2026-04-26 08:23 | 56.71489 | 64.28530 | 21847 ft | 305 kts | 226° |
| 2026-04-26 08:24 | 56.69922 | 64.25768 | 21876 ft | 324 kts | 226° |
| 2026-04-26 08:24 | 56.68249 | 64.22823 | 21795 ft | 343 kts | 226° |
| 2026-04-26 08:24 | 56.66565 | 64.19864 | 22872 ft | 324 kts | 226° |
| 2026-04-26 08:24 | 56.65025 | 64.17162 | 24262 ft | 297 kts | 227° |
| 2026-04-26 08:25 | 56.63521 | 64.14523 | 24447 ft | 310 kts | 227° |
| 2026-04-26 08:25 | 56.61885 | 64.11654 | 23879 ft | 344 kts | 227° |
| 2026-04-26 08:25 | 56.60099 | 64.08532 | 23728 ft | 363 kts | 226° |
| 2026-04-26 08:25 | 56.58299 | 64.05390 | 24490 ft | 351 kts | 226° |
| 2026-04-26 08:26 | 56.56598 | 64.02425 | 25652 ft | 329 kts | 227° |
| 2026-04-26 08:26 | 56.54956 | 63.99564 | 26201 ft | 329 kts | 226° |
| 2026-04-26 08:26 | 56.53252 | 63.96598 | 25887 ft | 352 kts | 226° |
| 2026-04-26 08:26 | 56.51422 | 63.93419 | 25590 ft | 374 kts | 226° |
| 2026-04-26 08:27 | 56.49599 | 63.90259 | 26625 ft | 346 kts | 226° |
| 2026-04-26 08:27 | 56.47939 | 63.87383 | 28124 ft | 320 kts | 226° |
| 2026-04-26 08:27 | 56.46322 | 63.84583 | 28266 ft | 330 kts | 226° |
| 2026-04-26 08:27 | 56.44577 | 63.81564 | 27365 ft | 366 kts | 226° |
| 2026-04-26 08:28 | 56.42729 | 63.78404 | 27833 ft | 363 kts | 226° |
| 2026-04-26 08:28 | 56.40944 | 63.75394 | 28352 ft | 361 kts | 226° |
| 2026-04-26 08:28 | 56.39127 | 63.72273 | 28743 ft | 361 kts | 227° |
| 2026-04-26 08:28 | 56.37332 | 63.69103 | 29137 ft | 361 kts | 227° |
| 2026-04-26 08:29 | 56.35555 | 63.65941 | 29644 ft | 358 kts | 227° |
| 2026-04-26 08:29 | 56.33771 | 63.62803 | 29936 ft | 360 kts | 227° |
| 2026-04-26 08:29 | 56.31953 | 63.59667 | 30166 ft | 362 kts | 226° |
| 2026-04-26 08:29 | 56.30106 | 63.56592 | 30496 ft | 361 kts | 225° |
| 2026-04-26 08:30 | 56.28271 | 63.53603 | 30818 ft | 360 kts | 226° |
| 2026-04-26 08:30 | 56.26540 | 63.50341 | 30984 ft | 362 kts | 233° |
| 2026-04-26 08:30 | 56.24980 | 63.46790 | 31281 ft | 360 kts | 233° |
| 2026-04-26 08:30 | 56.23405 | 63.43290 | 31532 ft | 362 kts | 232° |
| 2026-04-26 08:31 | 56.20152 | 63.36243 | 31869 ft | 368 kts | 232° |
| 2026-04-26 08:31 | 56.18501 | 63.32706 | 32029 ft | 371 kts | 232° |
| 2026-04-26 08:31 | 56.16818 | 63.29158 | 32149 ft | 376 kts | 231° |
| 2026-04-26 08:32 | 56.15100 | 63.25589 | 32318 ft | 379 kts | 231° |
| 2026-04-26 08:32 | 56.13365 | 63.22030 | 32574 ft | 379 kts | 231° |
| 2026-04-26 08:32 | 56.11619 | 63.18489 | 32867 ft | 379 kts | 231° |
| 2026-04-26 08:32 | 56.09888 | 63.14920 | 33034 ft | 381 kts | 232° |
| 2026-04-26 08:33 | 56.08214 | 63.11208 | 33170 ft | 384 kts | 233° |
| 2026-04-26 08:33 | 56.06561 | 63.07434 | 33322 ft | 386 kts | 233° |
| 2026-04-26 08:33 | 56.04862 | 63.03704 | 33506 ft | 388 kts | 231° |
| 2026-04-26 08:33 | 56.03108 | 63.00016 | 33716 ft | 389 kts | 231° |
| 2026-04-26 08:34 | 56.01353 | 62.96330 | 33896 ft | 390 kts | 231° |
| 2026-04-26 08:34 | 55.99603 | 62.92607 | 34055 ft | 392 kts | 232° |
| 2026-04-26 08:34 | 55.98418 | 62.90080 | 34180 ft | 393 kts | 232° |
| 2026-04-26 08:34 | 55.96663 | 62.86340 | 34362 ft | 393 kts | 232° |
| 2026-04-26 08:35 | 55.94899 | 62.82595 | 34520 ft | 395 kts | 232° |
| 2026-04-26 08:35 | 55.92540 | 62.77635 | 34690 ft | 398 kts | 231° |
| 2026-04-26 08:35 | 55.89494 | 62.71430 | 34890 ft | 402 kts | 230° |
| 2026-04-26 08:36 | 55.87622 | 62.67724 | 35048 ft | 403 kts | 229° |
| 2026-04-26 08:36 | 55.85723 | 62.64041 | 35221 ft | 404 kts | 229° |
| 2026-04-26 08:36 | 55.83798 | 62.60383 | 35386 ft | 406 kts | 228° |
| 2026-04-26 08:36 | 55.81911 | 62.56648 | 35503 ft | 407 kts | 232° |
| 2026-04-26 08:37 | 55.78362 | 62.48717 | 35720 ft | 412 kts | 232° |
| 2026-04-26 08:37 | 55.76523 | 62.44813 | 35846 ft | 412 kts | 231° |
| 2026-04-26 08:37 | 55.74661 | 62.40923 | 35869 ft | 415 kts | 231° |
| 2026-04-26 08:38 | 55.70896 | 62.33141 | 35698 ft | 415 kts | 231° |
| 2026-04-26 08:38 | 55.69018 | 62.29276 | 35560 ft | 412 kts | 231° |
| 2026-04-26 08:38 | 55.67151 | 62.25438 | 35582 ft | 410 kts | 231° |
| 2026-04-26 08:39 | 55.65293 | 62.21627 | 35774 ft | 407 kts | 231° |
| 2026-04-26 08:39 | 55.63431 | 62.17810 | 35774 ft | 411 kts | 231° |
| 2026-04-26 08:39 | 55.59668 | 62.10121 | 35847 ft | 415 kts | 231° |
| 2026-04-26 08:40 | 55.55893 | 62.02434 | 35757 ft | 411 kts | 231° |
| 2026-04-26 08:40 | 55.54038 | 61.98666 | 35863 ft | 412 kts | 231° |
| 2026-04-26 08:40 | 55.52124 | 61.94785 | 35827 ft | 416 kts | 231° |
| 2026-04-26 08:41 | 55.50231 | 61.90952 | 35726 ft | 413 kts | 231° |
| 2026-04-26 08:41 | 55.48346 | 61.87142 | 35843 ft | 411 kts | 231° |
| 2026-04-26 08:41 | 55.44562 | 61.79511 | 35687 ft | 413 kts | 231° |
| 2026-04-26 08:42 | 55.42688 | 61.75741 | 35969 ft | 405 kts | 231° |
| 2026-04-26 08:42 | 55.40838 | 61.72024 | 36133 ft | 405 kts | 230° |
| 2026-04-26 08:42 | 55.38950 | 61.68237 | 35785 ft | 418 kts | 230° |
| 2026-04-26 08:42 | 55.37024 | 61.64380 | 35634 ft | 421 kts | 230° |
| 2026-04-26 08:43 | 55.35096 | 61.60529 | 35906 ft | 417 kts | 230° |
| 2026-04-26 08:43 | 55.33188 | 61.56724 | 36174 ft | 414 kts | 230° |
| 2026-04-26 08:43 | 55.31283 | 61.52936 | 36286 ft | 415 kts | 229° |
| 2026-04-26 08:43 | 55.29210 | 61.49367 | 36211 ft | 420 kts | 226° |
| 2026-04-26 08:44 | 55.27095 | 61.45813 | 36107 ft | 423 kts | 226° |
| 2026-04-26 08:44 | 55.24971 | 61.42211 | 36114 ft | 424 kts | 226° |
| 2026-04-26 08:44 | 55.22859 | 61.38616 | 36217 ft | 423 kts | 226° |
| 2026-04-26 08:44 | 55.20752 | 61.35026 | 36354 ft | 422 kts | 226° |
| 2026-04-26 08:45 | 55.18654 | 61.31458 | 36463 ft | 420 kts | 226° |
| 2026-04-26 08:45 | 55.16551 | 61.27882 | 36422 ft | 423 kts | 226° |
| 2026-04-26 08:45 | 55.14430 | 61.24282 | 36164 ft | 428 kts | 226° |
| 2026-04-26 08:45 | 55.12276 | 61.20630 | 35174 ft | 436 kts | 226° |